Time;durP1;ratioP1;P1;durP2;ratioP2;P2;SDS_P1;SDS_P2;PMS_P1;PMS_P2;Temp;Humidity;BMP_temperature;BMP_pressure;BME280_temperature;BME280_humidity;BME280_pressure;Samples;Min_cycle;Max_cycle;Signal;HPM_P1;HPM_P2
2021/09/07 00:00:05;;;;;;;10.05;6.47;;;;;;;;;;4975359;28;20018;-65
2021/09/07 00:02:37;;;;;;;8.90;6.45;;;;;;;;;;4967627;28;20042;-65
2021/09/07 00:05:04;;;;;;;8.82;6.15;;;;;;;;;;4977452;28;20022;-65
2021/09/07 00:07:30;;;;;;;9.23;6.15;;;;;;;;;;4976361;28;20023;-64
2021/09/07 00:09:55;;;;;;;9.38;6.10;;;;;;;;;;4975578;28;20041;-65
2021/09/07 00:12:21;;;;;;;8.45;6.45;;;;;;;;;;4977392;28;20025;-65
2021/09/07 00:14:48;;;;;;;11.80;6.03;;;;;;;;;;4974870;28;20405;-65
2021/09/07 00:17:13;;;;;;;9.23;6.22;;;;;;;;;;4976427;28;20022;-64
2021/09/07 00:19:39;;;;;;;8.02;6.13;;;;;;;;;;4981946;28;20038;-64
2021/09/07 00:22:05;;;;;;;10.85;6.43;;;;;;;;;;4977385;28;20022;-64
2021/09/07 00:24:31;;;;;;;12.20;6.28;;;;;;;;;;4976351;28;20101;-64
2021/09/07 00:26:58;;;;;;;8.80;6.63;;;;;;;;;;4975744;28;20486;-64
2021/09/07 00:29:27;;;;;;;9.48;6.20;;;;;;;;;;4967914;28;20492;-64
2021/09/07 00:31:53;;;;;;;11.60;6.38;;;;;;;;;;4976425;28;20046;-63
2021/09/07 00:34:23;;;;;;;10.75;6.25;;;;;;;;;;4975135;28;20022;-64
2021/09/07 00:36:48;;;;;;;9.05;6.20;;;;;;;;;;4993845;28;20043;-64
2021/09/07 00:39:14;;;;;;;10.27;6.35;;;;;;;;;;4995481;28;20030;-64
2021/09/07 00:41:40;;;;;;;8.27;5.82;;;;;;;;;;4981025;28;20021;-64
2021/09/07 00:44:15;;;;;;;10.00;5.63;;;;;;;;;;5000387;28;20030;-60
2021/09/07 00:46:41;;;;;;;9.57;5.63;;;;;;;;;;5000191;28;20038;-60
2021/09/07 00:49:06;;;;;;;9.32;6.10;;;;;;;;;;4998272;28;20026;-64
2021/09/07 00:51:32;;;;;;;9.65;5.95;;;;;;;;;;4999260;28;20128;-64
2021/09/07 00:53:58;;;;;;;7.97;5.63;;;;;;;;;;4981921;28;20106;-65
2021/09/07 00:56:24;;;;;;;8.38;5.97;;;;;;;;;;4997975;28;20026;-65
2021/09/07 00:58:49;;;;;;;8.13;5.75;;;;;;;;;;4999534;28;20068;-65
2021/09/07 01:01:15;;;;;;;8.80;5.57;;;;;;;;;;4999314;28;20034;-60
2021/09/07 01:03:41;;;;;;;8.32;5.75;;;;;;;;;;4997859;28;20026;-60
2021/09/07 01:06:08;;;;;;;8.77;5.80;;;;;;;;;;4999696;28;20036;-60
2021/09/07 01:08:35;;;;;;;6.75;5.50;;;;;;;;;;4999130;28;20033;-60
2021/09/07 01:11:01;;;;;;;10.35;5.53;;;;;;;;;;4998082;28;20040;-60
2021/09/07 01:13:27;;;;;;;11.43;5.70;;;;;;;;;;4980327;28;20105;-60
2021/09/07 01:15:53;;;;;;;7.90;5.93;;;;;;;;;;4981520;28;20025;-61
2021/09/07 01:18:18;;;;;;;7.90;5.05;;;;;;;;;;4999599;28;20026;-66
2021/09/07 01:20:45;;;;;;;8.25;5.43;;;;;;;;;;4997705;28;20030;-65
2021/09/07 01:23:10;;;;;;;9.02;5.45;;;;;;;;;;4999468;28;20361;-65
2021/09/07 01:25:36;;;;;;;7.85;5.40;;;;;;;;;;5004765;28;20500;-65
2021/09/07 01:28:01;;;;;;;8.65;5.40;;;;;;;;;;4997661;28;20037;-65
2021/09/07 01:30:29;;;;;;;7.25;5.60;;;;;;;;;;4999486;28;20117;-65
2021/09/07 01:32:56;;;;;;;7.18;5.22;;;;;;;;;;4998704;28;20029;-65
2021/09/07 01:35:21;;;;;;;6.13;5.10;;;;;;;;;;4997026;28;20034;-65
2021/09/07 01:37:47;;;;;;;6.95;5.50;;;;;;;;;;4999646;28;20032;-64
2021/09/07 01:40:12;;;;;;;7.25;5.47;;;;;;;;;;4998177;28;20034;-64
2021/09/07 01:42:41;;;;;;;7.18;5.35;;;;;;;;;;4998003;28;20022;-63
2021/09/07 01:45:06;;;;;;;8.35;5.47;;;;;;;;;;4997825;28;20037;-64
2021/09/07 01:47:32;;;;;;;7.45;5.13;;;;;;;;;;4998381;28;20025;-65
2021/09/07 01:49:57;;;;;;;7.32;5.03;;;;;;;;;;4998745;28;20362;-59
2021/09/07 01:52:23;;;;;;;7.88;5.07;;;;;;;;;;5003708;28;20015;-64
2021/09/07 01:54:48;;;;;;;6.90;4.75;;;;;;;;;;4998687;28;20115;-64
2021/09/07 01:57:15;;;;;;;8.68;5.28;;;;;;;;;;4998352;28;20018;-64
2021/09/07 01:59:42;;;;;;;9.10;5.47;;;;;;;;;;4996977;28;20042;-64
2021/09/07 02:02:08;;;;;;;7.35;5.35;;;;;;;;;;5005316;28;20030;-64
2021/09/07 02:04:33;;;;;;;9.30;5.60;;;;;;;;;;5002962;28;20041;-64
2021/09/07 02:07:00;;;;;;;8.80;5.00;;;;;;;;;;4996933;28;20017;-64
2021/09/07 02:09:26;;;;;;;7.55;5.35;;;;;;;;;;4994364;28;20385;-60
2021/09/07 02:11:54;;;;;;;6.93;5.05;;;;;;;;;;4997745;28;20460;-60
2021/09/07 02:14:20;;;;;;;6.43;5.03;;;;;;;;;;4998501;28;20028;-64
2021/09/07 02:16:47;;;;;;;8.50;5.35;;;;;;;;;;4998980;28;20033;-65
2021/09/07 02:19:13;;;;;;;7.60;5.35;;;;;;;;;;4996156;28;20030;-65
2021/09/07 02:21:39;;;;;;;9.98;6.00;;;;;;;;;;4998627;28;20026;-65
2021/09/07 02:24:05;;;;;;;7.65;5.53;;;;;;;;;;4994785;28;20393;-65
2021/09/07 02:26:31;;;;;;;9.95;5.47;;;;;;;;;;4997920;28;20025;-65
2021/09/07 02:28:57;;;;;;;8.65;5.20;;;;;;;;;;4997964;28;20082;-65
2021/09/07 02:31:22;;;;;;;7.68;5.15;;;;;;;;;;4978786;28;20025;-60
2021/09/07 02:33:49;;;;;;;5.47;4.80;;;;;;;;;;4997893;28;20021;-60
2021/09/07 02:36:20;;;;;;;8.20;5.13;;;;;;;;;;4997284;28;20073;-64
2021/09/07 02:38:47;;;;;;;7.00;4.78;;;;;;;;;;4993658;28;20076;-60
2021/09/07 02:41:12;;;;;;;5.95;5.35;;;;;;;;;;4996302;28;20022;-65
2021/09/07 02:43:38;;;;;;;6.45;4.75;;;;;;;;;;4996745;28;20072;-61
2021/09/07 02:46:05;;;;;;;8.45;5.07;;;;;;;;;;4980707;28;20029;-60
2021/09/07 02:48:30;;;;;;;6.38;4.68;;;;;;;;;;4996613;28;20122;-60
2021/09/07 02:50:56;;;;;;;9.30;5.20;;;;;;;;;;4978666;28;20132;-60
2021/09/07 02:53:21;;;;;;;7.28;4.72;;;;;;;;;;4998173;28;20095;-60
2021/09/07 02:55:48;;;;;;;8.15;6.10;;;;;;;;;;4995817;28;20038;-60
2021/09/07 02:58:15;;;;;;;9.13;5.63;;;;;;;;;;4996740;28;20504;-60
2021/09/07 03:00:41;;;;;;;5.53;4.82;;;;;;;;;;4998058;28;20021;-60
2021/09/07 03:03:09;;;;;;;7.18;4.85;;;;;;;;;;4980682;28;20025;-60
2021/09/07 03:05:34;;;;;;;7.10;4.82;;;;;;;;;;4997164;28;20033;-60
2021/09/07 03:08:00;;;;;;;5.55;4.75;;;;;;;;;;4979467;28;20064;-60
2021/09/07 03:10:26;;;;;;;7.22;4.65;;;;;;;;;;4998866;28;20053;-60
2021/09/07 03:12:54;;;;;;;6.30;4.72;;;;;;;;;;4996870;28;20073;-60
2021/09/07 03:15:21;;;;;;;9.65;4.85;;;;;;;;;;4997004;28;20026;-60
2021/09/07 03:17:47;;;;;;;6.68;4.40;;;;;;;;;;4998693;28;20034;-61
2021/09/07 03:20:12;;;;;;;7.78;4.82;;;;;;;;;;4999122;28;20076;-61
2021/09/07 03:22:38;;;;;;;8.13;4.78;;;;;;;;;;4997179;28;20030;-60
2021/09/07 03:25:04;;;;;;;7.88;4.80;;;;;;;;;;4998262;28;20020;-60
2021/09/07 03:27:29;;;;;;;8.68;5.38;;;;;;;;;;4995977;28;20145;-60
2021/09/07 03:29:55;;;;;;;8.70;4.82;;;;;;;;;;4996316;28;20104;-60
2021/09/07 03:32:21;;;;;;;10.50;5.82;;;;;;;;;;5004655;28;20030;-60
2021/09/07 03:34:48;;;;;;;7.43;4.78;;;;;;;;;;5003449;28;20018;-60
2021/09/07 03:37:14;;;;;;;6.78;4.75;;;;;;;;;;5002915;28;20040;-61
2021/09/07 03:39:40;;;;;;;6.15;4.78;;;;;;;;;;5004484;28;20018;-61
2021/09/07 03:42:06;;;;;;;6.20;4.85;;;;;;;;;;5002937;28;20060;-60
2021/09/07 03:44:31;;;;;;;13.25;5.70;;;;;;;;;;5003319;28;20053;-60
2021/09/07 03:46:57;;;;;;;8.43;4.95;;;;;;;;;;5004183;28;20068;-61
2021/09/07 03:49:23;;;;;;;7.50;4.47;;;;;;;;;;4999712;28;20021;-60
2021/09/07 03:51:49;;;;;;;6.35;4.93;;;;;;;;;;4993843;28;20030;-60
2021/09/07 03:54:15;;;;;;;7.20;5.18;;;;;;;;;;4993957;28;20049;-59
2021/09/07 03:56:41;;;;;;;8.27;4.75;;;;;;;;;;4993736;28;20697;-60
2021/09/07 03:59:08;;;;;;;6.80;4.68;;;;;;;;;;4993671;28;20021;-59
2021/09/07 04:01:34;;;;;;;5.30;4.68;;;;;;;;;;4993876;28;20030;-59
2021/09/07 04:04:00;;;;;;;7.03;4.70;;;;;;;;;;4993798;28;20053;-60
2021/09/07 04:06:26;;;;;;;7.80;4.57;;;;;;;;;;4994263;28;20034;-60
2021/09/07 04:08:51;;;;;;;6.80;5.15;;;;;;;;;;4994125;28;20022;-60
2021/09/07 04:11:18;;;;;;;8.85;4.97;;;;;;;;;;4993860;28;20030;-60
2021/09/07 04:13:44;;;;;;;7.25;5.05;;;;;;;;;;4994115;28;20019;-59
2021/09/07 04:16:09;;;;;;;7.32;4.38;;;;;;;;;;4995696;28;20045;-59
2021/09/07 04:18:35;;;;;;;7.47;4.82;;;;;;;;;;4980729;28;20018;-60
2021/09/07 04:21:00;;;;;;;6.18;4.45;;;;;;;;;;4997933;28;20030;-59
2021/09/07 04:23:26;;;;;;;6.18;4.45;;;;;;;;;;4997888;28;20030;-60
2021/09/07 04:25:51;;;;;;;7.10;4.75;;;;;;;;;;4979876;28;20038;-60
2021/09/07 04:28:17;;;;;;;7.82;4.97;;;;;;;;;;4997710;28;20109;-60
2021/09/07 04:30:42;;;;;;;8.25;4.55;;;;;;;;;;4980188;28;20037;-59
2021/09/07 04:33:08;;;;;;;6.95;4.80;;;;;;;;;;4980413;28;20026;-60
2021/09/07 04:35:33;;;;;;;7.72;5.05;;;;;;;;;;4997194;28;20039;-59
2021/09/07 04:37:59;;;;;;;6.55;5.15;;;;;;;;;;4997328;28;20026;-59
2021/09/07 04:40:24;;;;;;;8.85;4.97;;;;;;;;;;4997294;28;20026;-59
2021/09/07 04:42:50;;;;;;;6.32;4.85;;;;;;;;;;4996996;28;20019;-60
2021/09/07 04:45:18;;;;;;;7.95;4.95;;;;;;;;;;4997296;28;20031;-60
2021/09/07 04:47:43;;;;;;;6.70;5.00;;;;;;;;;;4997250;28;20053;-60
2021/09/07 04:50:09;;;;;;;7.32;5.40;;;;;;;;;;4997061;28;20034;-60
2021/09/07 04:52:34;;;;;;;7.75;5.25;;;;;;;;;;4997122;28;20019;-60
2021/09/07 04:55:00;;;;;;;6.78;5.30;;;;;;;;;;4997142;28;20477;-59
2021/09/07 04:57:25;;;;;;;7.88;5.63;;;;;;;;;;4997004;28;20030;-59
2021/09/07 04:59:51;;;;;;;6.38;4.97;;;;;;;;;;4997026;28;20030;-59
2021/09/07 05:02:16;;;;;;;7.25;5.10;;;;;;;;;;4996927;28;20052;-59
2021/09/07 05:04:42;;;;;;;6.10;4.68;;;;;;;;;;4996824;28;20512;-59
2021/09/07 05:07:07;;;;;;;7.53;4.57;;;;;;;;;;4996958;28;20022;-59
2021/09/07 05:09:33;;;;;;;6.07;4.22;;;;;;;;;;4996783;28;20058;-59
2021/09/07 05:11:58;;;;;;;6.32;4.38;;;;;;;;;;4996816;28;20104;-59
2021/09/07 05:14:24;;;;;;;7.07;4.65;;;;;;;;;;4996731;28;20037;-59
2021/09/07 05:16:49;;;;;;;5.65;4.40;;;;;;;;;;4996639;28;20485;-59
2021/09/07 05:19:16;;;;;;;4.90;4.03;;;;;;;;;;4996739;28;20039;-59
2021/09/07 05:21:41;;;;;;;5.43;3.58;;;;;;;;;;4979052;28;20033;-59
2021/09/07 05:24:07;;;;;;;6.00;4.05;;;;;;;;;;4996643;28;20397;-59
2021/09/07 05:26:32;;;;;;;4.80;3.80;;;;;;;;;;4995878;28;20037;-59
2021/09/07 05:28:58;;;;;;;6.15;4.75;;;;;;;;;;4996201;28;20489;-59
2021/09/07 05:31:23;;;;;;;5.60;4.15;;;;;;;;;;4996252;28;20023;-59
2021/09/07 05:33:48;;;;;;;7.75;4.38;;;;;;;;;;4996455;28;20037;-59
2021/09/07 05:36:14;;;;;;;8.43;4.70;;;;;;;;;;4995428;28;20111;-60
2021/09/07 05:38:40;;;;;;;5.97;3.80;;;;;;;;;;4996085;28;20500;-60
2021/09/07 05:41:05;;;;;;;5.47;4.20;;;;;;;;;;4996203;28;20072;-59
2021/09/07 05:43:30;;;;;;;7.80;4.40;;;;;;;;;;4996207;28;20027;-59
2021/09/07 05:45:57;;;;;;;6.20;4.03;;;;;;;;;;4996094;28;20551;-59
2021/09/07 05:48:22;;;;;;;6.85;4.57;;;;;;;;;;4995881;28;20038;-59
2021/09/07 05:50:48;;;;;;;6.93;5.03;;;;;;;;;;4995844;28;20037;-59
2021/09/07 05:53:13;;;;;;;5.10;4.43;;;;;;;;;;4995933;28;20100;-59
2021/09/07 05:55:38;;;;;;;8.73;4.57;;;;;;;;;;4995896;28;20526;-59
2021/09/07 05:58:04;;;;;;;6.88;4.35;;;;;;;;;;4995734;28;20527;-59
2021/09/07 06:00:30;;;;;;;9.70;4.82;;;;;;;;;;4995738;28;20028;-59
2021/09/07 06:02:57;;;;;;;7.60;4.60;;;;;;;;;;4994514;28;20042;-59
2021/09/07 06:05:23;;;;;;;6.28;4.05;;;;;;;;;;4995788;28;20019;-58
2021/09/07 06:07:48;;;;;;;5.88;4.57;;;;;;;;;;4995569;28;20034;-58
2021/09/07 06:10:14;;;;;;;6.25;4.70;;;;;;;;;;4995685;28;20029;-58
2021/09/07 06:12:39;;;;;;;8.57;5.60;;;;;;;;;;4995577;28;20027;-58
2021/09/07 06:15:05;;;;;;;10.02;5.80;;;;;;;;;;4995526;28;20015;-58
2021/09/07 06:17:31;;;;;;;7.78;5.32;;;;;;;;;;4978204;28;20050;-58
2021/09/07 06:19:56;;;;;;;7.60;5.32;;;;;;;;;;4995404;28;20458;-58
2021/09/07 06:22:21;;;;;;;6.28;4.72;;;;;;;;;;4995360;28;20038;-58
2021/09/07 06:24:48;;;;;;;6.28;4.25;;;;;;;;;;4995357;28;20023;-58
2021/09/07 06:27:14;;;;;;;7.38;5.07;;;;;;;;;;4995251;28;20114;-58
2021/09/07 06:29:39;;;;;;;7.03;4.80;;;;;;;;;;4995291;28;20440;-58
2021/09/07 06:32:05;;;;;;;5.05;4.18;;;;;;;;;;4995064;28;20552;-58
2021/09/07 06:34:30;;;;;;;8.13;4.15;;;;;;;;;;4995160;28;20359;-58
2021/09/07 06:36:56;;;;;;;5.88;4.22;;;;;;;;;;4994718;28;20041;-59
2021/09/07 06:39:22;;;;;;;5.22;3.70;;;;;;;;;;4994262;28;20041;-58
2021/09/07 06:41:48;;;;;;;8.80;4.20;;;;;;;;;;4995240;28;20551;-58
2021/09/07 06:44:14;;;;;;;7.32;4.28;;;;;;;;;;4995000;28;20018;-58
2021/09/07 06:46:39;;;;;;;8.48;4.38;;;;;;;;;;4994856;28;20031;-58
2021/09/07 06:49:04;;;;;;;5.40;4.22;;;;;;;;;;4994727;28;20048;-58
2021/09/07 06:51:30;;;;;;;4.82;4.13;;;;;;;;;;4994806;28;20217;-58
2021/09/07 06:53:55;;;;;;;7.50;4.43;;;;;;;;;;4994739;28;20034;-58
2021/09/07 06:56:21;;;;;;;5.78;3.97;;;;;;;;;;4994789;28;20083;-58
2021/09/07 06:58:46;;;;;;;7.40;4.05;;;;;;;;;;4994801;28;20019;-58
2021/09/07 07:01:12;;;;;;;4.85;3.72;;;;;;;;;;4994688;28;20092;-58
2021/09/07 07:03:37;;;;;;;6.85;4.72;;;;;;;;;;4993371;28;20038;-58
2021/09/07 07:06:02;;;;;;;6.22;4.40;;;;;;;;;;4994585;28;20030;-58
2021/09/07 07:08:28;;;;;;;6.30;4.10;;;;;;;;;;4994605;28;20026;-58
2021/09/07 07:10:53;;;;;;;4.35;3.88;;;;;;;;;;4994657;28;20034;-58
2021/09/07 07:13:19;;;;;;;5.47;4.28;;;;;;;;;;4977228;28;20478;-58
2021/09/07 07:15:44;;;;;;;5.38;4.03;;;;;;;;;;4994322;28;20037;-58
2021/09/07 07:18:10;;;;;;;5.85;3.72;;;;;;;;;;4994366;28;20061;-58
2021/09/07 07:20:35;;;;;;;5.95;3.92;;;;;;;;;;4994408;28;20026;-58
2021/09/07 07:23:01;;;;;;;7.65;4.35;;;;;;;;;;4994469;28;20058;-58
2021/09/07 07:25:26;;;;;;;5.72;4.00;;;;;;;;;;4993927;28;20093;-58
2021/09/07 07:27:51;;;;;;;4.65;3.92;;;;;;;;;;4994123;28;20034;-58
2021/09/07 07:30:17;;;;;;;6.00;4.13;;;;;;;;;;4994224;28;20094;-58
2021/09/07 07:32:42;;;;;;;4.82;3.70;;;;;;;;;;4994062;28;20015;-58
2021/09/07 07:35:08;;;;;;;5.10;3.83;;;;;;;;;;4994272;28;20039;-58
2021/09/07 07:37:33;;;;;;;4.32;3.53;;;;;;;;;;4993513;28;20049;-58
2021/09/07 07:39:59;;;;;;;5.18;3.70;;;;;;;;;;4994004;28;20237;-58
2021/09/07 07:42:25;;;;;;;7.57;3.72;;;;;;;;;;4993878;28;20037;-58
2021/09/07 07:44:50;;;;;;;4.60;3.63;;;;;;;;;;4993923;28;20033;-58
2021/09/07 07:47:16;;;;;;;7.32;3.85;;;;;;;;;;4994180;28;20084;-58
2021/09/07 07:49:41;;;;;;;5.03;4.00;;;;;;;;;;4993824;28;20049;-58
2021/09/07 07:52:07;;;;;;;5.45;3.80;;;;;;;;;;4993962;28;20516;-58
2021/09/07 07:54:34;;;;;;;7.60;3.95;;;;;;;;;;4993945;28;20034;-58
2021/09/07 07:56:59;;;;;;;5.78;3.88;;;;;;;;;;4993844;28;20014;-58
2021/09/07 07:59:25;;;;;;;5.18;3.42;;;;;;;;;;4993891;28;20035;-58
2021/09/07 08:01:52;;;;;;;4.35;3.42;;;;;;;;;;4993868;28;20041;-58
2021/09/07 08:04:18;;;;;;;4.40;3.80;;;;;;;;;;4976293;28;20030;-58
2021/09/07 08:06:43;;;;;;;5.75;3.38;;;;;;;;;;4993668;28;20358;-58
2021/09/07 08:09:10;;;;;;;7.47;4.22;;;;;;;;;;4993713;28;20043;-58
2021/09/07 08:11:35;;;;;;;4.88;3.67;;;;;;;;;;4993722;28;20023;-58
2021/09/07 08:14:01;;;;;;;5.88;3.75;;;;;;;;;;4993742;28;20029;-58
2021/09/07 08:16:26;;;;;;;6.85;4.20;;;;;;;;;;4993658;28;20022;-58
2021/09/07 08:18:52;;;;;;;6.70;4.10;;;;;;;;;;4992532;28;20129;-58
2021/09/07 08:21:17;;;;;;;5.85;3.78;;;;;;;;;;4975854;28;20370;-58
2021/09/07 08:23:43;;;;;;;5.15;3.75;;;;;;;;;;4993544;28;20030;-58
2021/09/07 08:26:08;;;;;;;5.63;3.95;;;;;;;;;;4993578;28;20030;-58
2021/09/07 08:28:33;;;;;;;4.18;3.72;;;;;;;;;;4993370;28;20034;-58
2021/09/07 08:30:59;;;;;;;3.47;2.40;;;;;;;;;;4993407;28;20500;-58
2021/09/07 08:33:24;;;;;;;6.43;4.40;;;;;;;;;;4993539;28;20019;-58
2021/09/07 08:35:50;;;;;;;4.55;2.97;;;;;;;;;;4993494;28;20021;-58
2021/09/07 08:38:16;;;;;;;5.93;4.05;;;;;;;;;;4992863;28;20057;-58
2021/09/07 08:40:42;;;;;;;7.75;3.65;;;;;;;;;;4993496;28;20034;-58
2021/09/07 08:43:07;;;;;;;5.47;4.07;;;;;;;;;;4993438;28;20056;-58
2021/09/07 08:45:33;;;;;;;7.03;4.32;;;;;;;;;;4993450;28;20022;-58
2021/09/07 08:48:00;;;;;;;5.72;3.58;;;;;;;;;;4993370;28;20034;-58
2021/09/07 08:50:26;;;;;;;5.95;4.07;;;;;;;;;;4993355;28;20018;-58
2021/09/07 08:52:58;;;;;;;5.50;4.25;;;;;;;;;;4993385;28;20085;-58
2021/09/07 08:55:24;;;;;;;5.38;3.47;;;;;;;;;;4993372;28;20030;-58
2021/09/07 08:57:50;;;;;;;5.90;3.90;;;;;;;;;;4975932;28;20465;-58
2021/09/07 09:00:22;;;;;;;5.45;4.10;;;;;;;;;;4993415;28;20399;-58
2021/09/07 09:02:47;;;;;;;5.32;3.80;;;;;;;;;;4994402;28;20429;-58
2021/09/07 09:05:13;;;;;;;4.97;4.05;;;;;;;;;;4996890;28;20030;-58
2021/09/07 09:07:38;;;;;;;3.13;2.58;;;;;;;;;;4995597;28;20022;-58
2021/09/07 09:10:04;;;;;;;4.47;3.08;;;;;;;;;;4996720;28;20054;-58
2021/09/07 09:12:32;;;;;;;5.13;3.65;;;;;;;;;;4996749;28;20026;-58
2021/09/07 09:14:58;;;;;;;5.95;4.07;;;;;;;;;;4996752;28;20465;-58
2021/09/07 09:17:26;;;;;;;7.18;4.40;;;;;;;;;;4996564;28;20073;-58
2021/09/07 09:19:53;;;;;;;4.43;3.10;;;;;;;;;;4996606;28;20019;-58
2021/09/07 09:22:19;;;;;;;5.53;3.88;;;;;;;;;;4996445;28;20062;-58
2021/09/07 09:24:45;;;;;;;5.78;3.90;;;;;;;;;;4996620;28;20022;-58
2021/09/07 09:27:11;;;;;;;5.65;4.15;;;;;;;;;;4996498;28;20042;-58
2021/09/07 09:29:38;;;;;;;3.63;3.10;;;;;;;;;;4996188;28;20029;-58
2021/09/07 09:32:07;;;;;;;7.05;4.78;;;;;;;;;;4996341;28;20033;-58
2021/09/07 09:34:33;;;;;;;8.23;4.45;;;;;;;;;;4996301;28;20014;-58
2021/09/07 09:37:00;;;;;;;6.88;5.50;;;;;;;;;;4995875;28;20026;-60
2021/09/07 09:39:44;;;;;;;4.80;3.92;;;;;;;;;;4996384;28;20034;-59
2021/09/07 09:42:13;;;;;;;5.30;3.85;;;;;;;;;;4996224;28;20401;-60
2021/09/07 09:44:39;;;;;;;5.60;4.40;;;;;;;;;;4996207;28;20026;-59
2021/09/07 09:47:04;;;;;;;9.60;4.30;;;;;;;;;;4996075;28;20033;-59
2021/09/07 09:49:30;;;;;;;5.43;4.68;;;;;;;;;;4996043;28;20023;-59
2021/09/07 09:52:04;;;;;;;6.05;4.35;;;;;;;;;;4996070;28;20049;-60
2021/09/07 09:54:30;;;;;;;3.95;3.45;;;;;;;;;;4995919;28;20032;-60
2021/09/07 09:56:56;;;;;;;6.55;4.95;;;;;;;;;;4995857;28;20019;-59
2021/09/07 09:59:23;;;;;;;6.53;4.95;;;;;;;;;;4995881;28;20038;-60
2021/09/07 10:01:48;;;;;;;3.65;3.05;;;;;;;;;;4995769;28;20030;-59
2021/09/07 10:04:14;;;;;;;6.68;4.43;;;;;;;;;;4978432;28;20425;-59
2021/09/07 10:06:40;;;;;;;8.27;4.80;;;;;;;;;;4995700;28;20022;-60
2021/09/07 10:09:06;;;;;;;7.00;5.15;;;;;;;;;;4995585;28;20396;-60
2021/09/07 10:11:32;;;;;;;9.98;4.90;;;;;;;;;;4995509;28;20026;-59
2021/09/07 10:14:00;;;;;;;12.00;6.75;;;;;;;;;;4995612;28;20030;-60
2021/09/07 10:16:26;;;;;;;9.98;6.13;;;;;;;;;;4995633;28;20385;-59
2021/09/07 10:18:55;;;;;;;7.68;3.70;;;;;;;;;;4995565;28;20030;-59
2021/09/07 10:24:27;;;;;;;8.43;4.45;;;;;;;;;;4978001;28;20038;-59
2021/09/07 10:26:53;;;;;;;7.20;4.90;;;;;;;;;;4995098;28;20109;-60
2021/09/07 10:29:21;;;;;;;7.28;5.07;;;;;;;;;;4995225;28;20025;-60
2021/09/07 10:31:48;;;;;;;11.45;5.72;;;;;;;;;;4995266;28;20026;-60
2021/09/07 10:34:15;;;;;;;6.28;4.55;;;;;;;;;;4995313;28;20019;-59
2021/09/07 10:37:01;;;;;;;7.30;4.25;;;;;;;;;;4995332;28;20026;-60
2021/09/07 10:39:31;;;;;;;11.07;5.70;;;;;;;;;;4994900;28;20402;-60
2021/09/07 10:41:56;;;;;;;12.57;6.88;;;;;;;;;;4995147;28;20484;-59
2021/09/07 10:44:31;;;;;;;7.40;5.30;;;;;;;;;;4995028;28;20029;-60
2021/09/07 10:46:57;;;;;;;9.73;5.90;;;;;;;;;;4995026;28;20042;-60
2021/09/07 10:49:40;;;;;;;6.97;4.78;;;;;;;;;;4977506;28;20444;-59
2021/09/07 10:52:09;;;;;;;10.35;5.95;;;;;;;;;;4994959;28;20092;-59
2021/09/07 10:54:40;;;;;;;11.02;6.28;;;;;;;;;;4994942;28;20152;-60
2021/09/07 10:57:05;;;;;;;7.82;5.53;;;;;;;;;;4994960;28;20036;-60
2021/09/07 10:59:44;;;;;;;8.02;4.57;;;;;;;;;;4994801;28;20388;-60
2021/09/07 11:02:28;;;;;;;8.48;5.68;;;;;;;;;;4993549;28;20022;-60
2021/09/07 11:04:53;;;;;;;7.28;5.32;;;;;;;;;;4993477;28;20032;-59
2021/09/07 11:07:38;;;;;;;9.75;5.55;;;;;;;;;;4994583;28;20018;-60
2021/09/07 11:10:04;;;;;;;10.75;5.63;;;;;;;;;;4994533;28;20038;-60
2021/09/07 11:12:32;;;;;;;7.13;5.80;;;;;;;;;;4994399;28;20050;-60
2021/09/07 11:15:01;;;;;;;6.53;5.13;;;;;;;;;;4993275;28;20022;-60
2021/09/07 11:17:26;;;;;;;8.43;5.55;;;;;;;;;;4994536;28;20085;-59
2021/09/07 11:20:03;;;;;;;6.95;4.97;;;;;;;;;;4976894;28;20030;-60
2021/09/07 11:22:29;;;;;;;9.25;5.30;;;;;;;;;;4976939;28;20496;-60
2021/09/07 11:25:02;;;;;;;7.97;6.28;;;;;;;;;;4994092;28;20030;-60
2021/09/07 11:27:27;;;;;;;7.25;5.32;;;;;;;;;;4994438;28;20081;-60
2021/09/07 11:29:52;;;;;;;10.27;6.85;;;;;;;;;;4994319;28;20485;-60
2021/09/07 11:32:19;;;;;;;8.43;5.13;;;;;;;;;;4994301;28;20500;-60
2021/09/07 11:35:04;;;;;;;9.73;5.72;;;;;;;;;;4960668;28;20461;-60
2021/09/07 11:37:30;;;;;;;13.23;5.20;;;;;;;;;;4993741;28;20465;-60
2021/09/07 11:40:08;;;;;;;10.00;6.15;;;;;;;;;;4994071;28;20049;-60
2021/09/07 11:42:41;;;;;;;6.38;4.60;;;;;;;;;;4994023;28;20058;-60
2021/09/07 11:45:07;;;;;;;7.72;5.90;;;;;;;;;;4992670;28;20401;-60
2021/09/07 11:47:32;;;;;;;9.95;6.00;;;;;;;;;;4993890;28;20030;-60
2021/09/07 11:49:57;;;;;;;8.27;6.05;;;;;;;;;;4993925;28;20037;-60
2021/09/07 11:52:23;;;;;;;9.30;6.95;;;;;;;;;;4993882;28;20483;-60
2021/09/07 11:54:48;;;;;;;10.95;6.80;;;;;;;;;;4993997;28;20023;-60
2021/09/07 11:57:14;;;;;;;12.65;6.82;;;;;;;;;;4993959;28;20021;-60
2021/09/07 11:59:57;;;;;;;10.98;7.10;;;;;;;;;;4993736;28;20031;-60
2021/09/07 12:02:25;;;;;;;8.48;5.93;;;;;;;;;;4993868;28;20074;-60
2021/09/07 12:04:54;;;;;;;10.98;6.20;;;;;;;;;;4993696;28;20413;-60
2021/09/07 12:07:19;;;;;;;8.45;6.93;;;;;;;;;;4993649;28;20041;-60
2021/09/07 12:09:45;;;;;;;8.30;5.57;;;;;;;;;;4993660;28;20015;-60
2021/09/07 12:12:11;;;;;;;10.40;6.38;;;;;;;;;;4993668;28;20371;-60
2021/09/07 12:14:39;;;;;;;10.88;6.50;;;;;;;;;;4993611;28;20036;-60
2021/09/07 12:17:11;;;;;;;6.45;5.72;;;;;;;;;;4993627;28;20034;-60
2021/09/07 12:19:50;;;;;;;13.02;7.22;;;;;;;;;;4993609;28;20497;-60
2021/09/07 12:22:17;;;;;;;7.20;6.22;;;;;;;;;;4992256;28;20432;-60
2021/09/07 12:24:56;;;;;;;9.55;6.72;;;;;;;;;;4976103;28;20026;-60
2021/09/07 12:27:23;;;;;;;9.98;7.50;;;;;;;;;;4993762;28;20042;-60
2021/09/07 12:30:07;;;;;;;11.45;7.10;;;;;;;;;;4993485;28;20022;-60
2021/09/07 12:32:43;;;;;;;11.57;6.78;;;;;;;;;;4993529;28;20026;-60
2021/09/07 12:35:09;;;;;;;9.15;6.22;;;;;;;;;;4976156;28;20085;-60
2021/09/07 12:37:34;;;;;;;8.95;5.90;;;;;;;;;;4994907;28;20038;-60
2021/09/07 12:39:59;;;;;;;11.38;6.53;;;;;;;;;;4997275;28;20038;-60
2021/09/07 12:42:25;;;;;;;11.05;7.40;;;;;;;;;;4997277;28;20480;-60
2021/09/07 12:44:50;;;;;;;11.57;7.45;;;;;;;;;;4997313;28;20556;-60
2021/09/07 12:47:15;;;;;;;10.88;7.30;;;;;;;;;;4997373;28;20022;-60
2021/09/07 12:49:41;;;;;;;10.18;7.07;;;;;;;;;;4997054;28;20421;-60
2021/09/07 12:52:06;;;;;;;11.80;8.30;;;;;;;;;;4997140;28;20018;-60
2021/09/07 12:54:32;;;;;;;10.95;6.75;;;;;;;;;;4997121;28;20033;-60
2021/09/07 12:56:57;;;;;;;12.02;6.60;;;;;;;;;;4997131;28;20054;-60
2021/09/07 12:59:23;;;;;;;10.35;7.13;;;;;;;;;;4997056;28;20057;-60
2021/09/07 13:01:48;;;;;;;9.25;6.55;;;;;;;;;;4996970;28;20026;-60
2021/09/07 13:04:13;;;;;;;8.80;6.28;;;;;;;;;;4996936;28;20037;-60
2021/09/07 13:06:39;;;;;;;11.02;6.93;;;;;;;;;;4996904;28;20113;-60
2021/09/07 13:09:05;;;;;;;9.35;7.15;;;;;;;;;;4996809;28;20076;-60
2021/09/07 13:11:30;;;;;;;7.88;6.00;;;;;;;;;;4996865;28;20018;-60
2021/09/07 13:13:56;;;;;;;9.10;6.13;;;;;;;;;;4995435;28;20022;-60
2021/09/07 13:16:22;;;;;;;12.77;6.95;;;;;;;;;;4996616;28;20072;-60
2021/09/07 13:18:49;;;;;;;8.63;6.95;;;;;;;;;;4996724;28;20031;-60
2021/09/07 13:21:15;;;;;;;13.55;7.00;;;;;;;;;;4996679;28;20019;-60
2021/09/07 13:23:41;;;;;;;8.57;6.45;;;;;;;;;;4996723;28;20069;-60
2021/09/07 13:26:07;;;;;;;12.27;6.82;;;;;;;;;;4996620;28;20486;-60
2021/09/07 13:28:32;;;;;;;11.05;6.60;;;;;;;;;;4995166;28;20061;-59
2021/09/07 13:30:58;;;;;;;10.02;6.88;;;;;;;;;;4996478;28;20500;-60
2021/09/07 13:33:23;;;;;;;9.27;7.05;;;;;;;;;;4996373;28;20035;-60
2021/09/07 13:35:49;;;;;;;10.98;7.00;;;;;;;;;;4996453;28;20413;-59
2021/09/07 13:38:14;;;;;;;11.60;6.32;;;;;;;;;;4994460;28;20038;-60
2021/09/07 13:40:40;;;;;;;11.13;7.13;;;;;;;;;;4996266;28;20034;-60
2021/09/07 13:43:06;;;;;;;11.65;6.38;;;;;;;;;;4996190;28;20376;-60
2021/09/07 13:45:31;;;;;;;8.82;7.18;;;;;;;;;;4996187;28;20064;-60
2021/09/07 13:47:57;;;;;;;9.82;6.95;;;;;;;;;;4995295;28;20022;-60
2021/09/07 13:50:22;;;;;;;9.75;6.75;;;;;;;;;;4996239;28;20500;-60
2021/09/07 13:52:48;;;;;;;10.85;7.35;;;;;;;;;;4996046;28;20114;-60
2021/09/07 13:55:14;;;;;;;10.63;6.80;;;;;;;;;;4995911;28;20039;-60
2021/09/07 13:57:39;;;;;;;10.85;7.05;;;;;;;;;;4995896;28;20019;-60
2021/09/07 14:00:08;;;;;;;8.45;6.30;;;;;;;;;;4995975;28;20026;-60
2021/09/07 14:02:40;;;;;;;13.43;7.22;;;;;;;;;;4995863;28;20027;-60
2021/09/07 14:05:06;;;;;;;14.50;8.20;;;;;;;;;;4995902;28;20489;-60
2021/09/07 14:07:32;;;;;;;11.43;8.43;;;;;;;;;;4995730;28;20030;-60
2021/09/07 14:09:59;;;;;;;11.05;7.57;;;;;;;;;;4978264;28;20031;-60
2021/09/07 14:12:24;;;;;;;9.63;7.65;;;;;;;;;;4995644;28;20049;-60
2021/09/07 14:14:50;;;;;;;10.82;7.10;;;;;;;;;;4995355;28;20108;-60
2021/09/07 14:17:15;;;;;;;9.40;7.25;;;;;;;;;;4995577;28;20457;-60
2021/09/07 14:19:41;;;;;;;9.80;6.97;;;;;;;;;;4994674;28;20035;-60
2021/09/07 14:22:06;;;;;;;8.98;7.25;;;;;;;;;;4995780;28;20025;-60
2021/09/07 14:24:32;;;;;;;14.23;7.03;;;;;;;;;;4995584;28;20026;-60
2021/09/07 14:26:57;;;;;;;12.38;7.57;;;;;;;;;;4995892;28;20049;-60
2021/09/07 14:29:23;;;;;;;11.35;6.90;;;;;;;;;;4995505;28;20042;-60
2021/09/07 14:31:48;;;;;;;9.95;7.93;;;;;;;;;;4995472;28;20037;-60
2021/09/07 14:34:14;;;;;;;11.50;7.72;;;;;;;;;;4995518;28;20503;-60
2021/09/07 14:36:39;;;;;;;8.90;6.97;;;;;;;;;;4995792;28;20019;-60
2021/09/07 14:39:05;;;;;;;9.95;6.88;;;;;;;;;;4995238;28;20105;-61